Clezio — FAB4151 — position and weather

sailwx.info

Track history (hours):
 
Tides and Currents Weather Stations Pressure Air Temp Water Temp Dewpoint Dewpoint Depression Visibility Wind Speed Wind Dir Waves Ship Positions

Clezio

Last reported at 2018-Jun-18 08:45 UTC. Time now 2018-Jun-22 09:15 UTC.
Position N 49°29' E 000°06'.

Length 12 m.

Type: Sailing vessel. MMSI: 227201280.

Date/timePositionNaut miles runAvg speedWind from/ knotsBaromVisibWave heightAir tempDewpointWater temp
2018-Jun-18 08:45N 49°29' E 000°06'0 0.0
2018-Jun-17 15:59N 49°29' E 000°06'0 0.0
2018-Jun-17 15:29N 49°29' E 000°06'0 0.4
2018-Jun-17 15:00N 49°29' E 000°06'3 5.2
2018-Jun-17 14:30N 49°31' E 000°02'1 2.0
2018-Jun-17 14:00N 49°30' E 000°04'0 0.7
2018-Jun-17 13:30N 49°30' E 000°04'0 0.7
2018-Jun-17 13:00N 49°30' E 000°03'1 1.2
2018-Jun-17 12:30N 49°30' E 000°04'3 5.2
2018-Jun-17 12:00N 49°27' E 000°04'3 6.5
2018-Jun-17 11:29N 49°24' E 000°04'2 0.1
2018-Jun-16 11:03N 49°22' E 000°04'0 6.8
2018-Jun-16 11:00N 49°23' E 000°04'3 6.3
2018-Jun-16 10:30N 49°26' E 000°04'2 4.6
2018-Jun-16 10:00N 49°28' E 000°04'2 3.7
2018-Jun-16 09:30N 49°30' E 000°02'2 3.4
2018-Jun-16 08:59N 49°29' E 000°05'1 0.0
2018-Jun-14 18:46N 49°29' E 000°06'0 0.0
2018-Jun-14 18:28N 49°29' E 000°06'0 0.0
2018-Jun-14 17:55N 49°29' E 000°06'0 0.0
2018-Jun-14 17:28N 49°29' E 000°06'0 0.0
2018-Jun-14 16:58N 49°29' E 000°06'0 0.0
2018-Jun-14 16:22N 49°29' E 000°06'0 0.0
2018-Jun-14 15:58N 49°29' E 000°06'0 0.0
2018-Jun-14 15:28N 49°29' E 000°06'0 0.0
2018-Jun-14 14:58N 49°29' E 000°06'  
2018-Jun-10 16:38N 49°29' E 000°06'0 0.0
2018-Jun-10 16:26N 49°29' E 000°06'0 0.0
2018-Jun-10 15:56N 49°29' E 000°06'0 0.0
2018-Jun-10 15:29N 49°29' E 000°06'0 0.0
2018-Jun-10 14:56N 49°29' E 000°06'0 0.0
2018-Jun-10 14:26N 49°29' E 000°06'0 0.0
2018-Jun-10 13:25N 49°29' E 000°06'2 4.3
2018-Jun-10 12:59N 49°30' E 000°03'4 8.5
2018-Jun-10 12:30N 49°34' E 000°01'5 9.7
2018-Jun-10 12:00N 49°39' E 000°01'2 3.4
2018-Jun-10 11:29N 49°40' E 000°01'3 6.3
2018-Jun-10 10:59N 49°37' E 000°02'3 6.3
2018-Jun-10 10:30N 49°34' E 000°04'4 6.9
2018-Jun-10 09:59N 49°33' W 000°01'2 4.1
2018-Jun-10 09:30N 49°33' E 000°02'2 4.6
2018-Jun-10 09:00N 49°30' E 000°03'1 2.4
2018-Jun-10 08:30N 49°29' E 000°02'1 2.8
2018-Jun-10 08:00N 49°30' E 000°04'1 2.7
2018-Jun-10 07:29N 49°29' E 000°06'0 0.0
2018-Jun-10 06:59N 49°29' E 000°06'0 0.0
2018-Jun-09 12:50N 49°29' E 000°06'0 0.0
2018-Jun-09 12:26N 49°29' E 000°06'0 0.0
2018-Jun-09 11:56N 49°29' E 000°06'0 0.0
2018-Jun-09 11:27N 49°29' E 000°06'0 0.0
2018-Jun-09 10:56N 49°29' E 000°06'0 0.0
2018-Jun-09 10:26N 49°29' E 000°06'0 0.0
2018-Jun-09 09:56N 49°29' E 000°06'0 0.0
2018-Jun-09 09:30N 49°29' E 000°06'0 0.0
2018-Jun-09 08:59N 49°29' E 000°06'0 0.0
2018-Jun-09 08:23N 49°29' E 000°06'0 0.9
2018-Jun-09 08:00N 49°29' E 000°05'2 4.4
2018-Jun-09 07:30N 49°31' E 000°03'2 4.6
2018-Jun-09 07:00N 49°31' W 000°01'3 6.4
2018-Jun-09 06:30N 49°32' W 000°06'3 5.7
2018-Jun-09 05:59N 49°31' W 000°10'3 6.1
2018-Jun-09 05:30N 49°30' W 000°14'3 6.8
2018-Jun-09 05:00N 49°27' W 000°15'4 6.8
2018-Jun-09 04:29N 49°23' W 000°15'3 5.3
2018-Jun-09 04:00N 49°21' W 000°15'3 6.2
2018-Jun-09 03:30N 49°24' W 000°13'3 5.6
2018-Jun-09 03:00N 49°26' W 000°12'5 7.0
2018-Jun-09 02:19N 49°31' W 000°10'2 7.5
2018-Jun-09 02:00N 49°33' W 000°08'4 8.1
2018-Jun-09 01:29N 49°36' W 000°04'4 8.3
2018-Jun-09 01:00N 49°39' W 000°01'4 8.3
2018-Jun-09 00:30N 49°43' E 000°03'2 0.5
2018-Jun-08 20:26N 49°41' E 000°06'3 5.4
2018-Jun-08 19:58N 49°41' E 000°02'3 7.1
2018-Jun-08 19:30N 49°38' E 000°03'3 5.2
2018-Jun-08 19:00N 49°35' E 000°03'3 5.5
2018-Jun-08 18:30N 49°32' E 000°03'2 4.3
2018-Jun-08 17:59N 49°30' E 000°04'1 2.3
2018-Jun-08 17:30N 49°29' E 000°05'0 0.6
2018-Jun-08 16:59N 49°29' E 000°06'0 0.0
2018-Jun-08 16:26N 49°29' E 000°06'0 0.0
2018-Jun-08 15:50N 49°29' E 000°06'  
Track history (hours):
 
Tides and Currents Weather Stations Pressure Air Temp Water Temp Dewpoint Dewpoint Depression Visibility Wind Speed Wind Dir Waves Ship Positions

Clezio

Last reported at 2018-Jun-18 08:45 UTC. Time now 2018-Jun-22 09:15 UTC.
Position N 49°29' E 000°06'.

Length 12 m.

Type: Sailing vessel. MMSI: 227201280.

Date/timePositionNaut miles runAvg speedWind from/ knotsBaromVisibWave heightAir tempDewpointWater temp
2018-Jun-18 08:45N 49°29' E 000°06'0 0.0
2018-Jun-17 15:59N 49°29' E 000°06'0 0.0
2018-Jun-17 15:29N 49°29' E 000°06'0 0.4
2018-Jun-17 15:00N 49°29' E 000°06'3 5.2
2018-Jun-17 14:30N 49°31' E 000°02'1 2.0
2018-Jun-17 14:00N 49°30' E 000°04'0 0.7
2018-Jun-17 13:30N 49°30' E 000°04'0 0.7
2018-Jun-17 13:00N 49°30' E 000°03'1 1.2
2018-Jun-17 12:30N 49°30' E 000°04'3 5.2
2018-Jun-17 12:00N 49°27' E 000°04'3 6.5
2018-Jun-17 11:29N 49°24' E 000°04'2 0.1
2018-Jun-16 11:03N 49°22' E 000°04'0 6.8
2018-Jun-16 11:00N 49°23' E 000°04'3 6.3
2018-Jun-16 10:30N 49°26' E 000°04'2 4.6
2018-Jun-16 10:00N 49°28' E 000°04'2 3.7
2018-Jun-16 09:30N 49°30' E 000°02'2 3.4
2018-Jun-16 08:59N 49°29' E 000°05'1 0.0
2018-Jun-14 18:46N 49°29' E 000°06'0 0.0
2018-Jun-14 18:28N 49°29' E 000°06'0 0.0
2018-Jun-14 17:55N 49°29' E 000°06'0 0.0
2018-Jun-14 17:28N 49°29' E 000°06'0 0.0
2018-Jun-14 16:58N 49°29' E 000°06'0 0.0
2018-Jun-14 16:22N 49°29' E 000°06'0 0.0
2018-Jun-14 15:58N 49°29' E 000°06'0 0.0
2018-Jun-14 15:28N 49°29' E 000°06'0 0.0
2018-Jun-14 14:58N 49°29' E 000°06'  
2018-Jun-10 16:38N 49°29' E 000°06'0 0.0
2018-Jun-10 16:26N 49°29' E 000°06'0 0.0
2018-Jun-10 15:56N 49°29' E 000°06'0 0.0
2018-Jun-10 15:29N 49°29' E 000°06'0 0.0
2018-Jun-10 14:56N 49°29' E 000°06'0 0.0
2018-Jun-10 14:26N 49°29' E 000°06'0 0.0
2018-Jun-10 13:25N 49°29' E 000°06'2 4.3
2018-Jun-10 12:59N 49°30' E 000°03'4 8.5
2018-Jun-10 12:30N 49°34' E 000°01'5 9.7
2018-Jun-10 12:00N 49°39' E 000°01'2 3.4
2018-Jun-10 11:29N 49°40' E 000°01'3 6.3
2018-Jun-10 10:59N 49°37' E 000°02'3 6.3
2018-Jun-10 10:30N 49°34' E 000°04'4 6.9
2018-Jun-10 09:59N 49°33' W 000°01'2 4.1
2018-Jun-10 09:30N 49°33' E 000°02'2 4.6
2018-Jun-10 09:00N 49°30' E 000°03'1 2.4
2018-Jun-10 08:30N 49°29' E 000°02'1 2.8
2018-Jun-10 08:00N 49°30' E 000°04'1 2.7
2018-Jun-10 07:29N 49°29' E 000°06'0 0.0
2018-Jun-10 06:59N 49°29' E 000°06'0 0.0
2018-Jun-09 12:50N 49°29' E 000°06'0 0.0
2018-Jun-09 12:26N 49°29' E 000°06'0 0.0
2018-Jun-09 11:56N 49°29' E 000°06'0 0.0
2018-Jun-09 11:27N 49°29' E 000°06'0 0.0
2018-Jun-09 10:56N 49°29' E 000°06'0 0.0
2018-Jun-09 10:26N 49°29' E 000°06'0 0.0
2018-Jun-09 09:56N 49°29' E 000°06'0 0.0
2018-Jun-09 09:30N 49°29' E 000°06'0 0.0
2018-Jun-09 08:59N 49°29' E 000°06'0 0.0
2018-Jun-09 08:23N 49°29' E 000°06'0 0.9
2018-Jun-09 08:00N 49°29' E 000°05'2 4.4
2018-Jun-09 07:30N 49°31' E 000°03'2 4.6
2018-Jun-09 07:00N 49°31' W 000°01'3 6.4
2018-Jun-09 06:30N 49°32' W 000°06'3 5.7
2018-Jun-09 05:59N 49°31' W 000°10'3 6.1
2018-Jun-09 05:30N 49°30' W 000°14'3 6.8
2018-Jun-09 05:00N 49°27' W 000°15'4 6.8
2018-Jun-09 04:29N 49°23' W 000°15'3 5.3
2018-Jun-09 04:00N 49°21' W 000°15'3 6.2
2018-Jun-09 03:30N 49°24' W 000°13'3 5.6
2018-Jun-09 03:00N 49°26' W 000°12'5 7.0
2018-Jun-09 02:19N 49°31' W 000°10'2 7.5
2018-Jun-09 02:00N 49°33' W 000°08'4 8.1
2018-Jun-09 01:29N 49°36' W 000°04'4 8.3
2018-Jun-09 01:00N 49°39' W 000°01'4 8.3
2018-Jun-09 00:30N 49°43' E 000°03'2 0.5
2018-Jun-08 20:26N 49°41' E 000°06'3 5.4
2018-Jun-08 19:58N 49°41' E 000°02'3 7.1
2018-Jun-08 19:30N 49°38' E 000°03'3 5.2
2018-Jun-08 19:00N 49°35' E 000°03'3 5.5
2018-Jun-08 18:30N 49°32' E 000°03'2 4.3
2018-Jun-08 17:59N 49°30' E 000°04'1 2.3
2018-Jun-08 17:30N 49°29' E 000°05'0 0.6
2018-Jun-08 16:59N 49°29' E 000°06'0 0.0
2018-Jun-08 16:26N 49°29' E 000°06'0 0.0
2018-Jun-08 15:50N 49°29' E 000°06'  

Dump ship's entire track history